Nevada Mills, Indiana
Current Conditions -  °F | °C
As of 4:55 PM on Friday 31 Oct 2014 (Local Time) from KANQ Reporting Station
NA  
Wind Chill: 25°   Ceiling: NA
Heat Index: 36°   Visibility: NA
Dew Point: 25°   Wind: 20mph
Humidity: 65%   Direction: 20°NNE
Pressure: 29.98"   Gusts: NA
Location:  41.6594°N, 85.0055°W
Report Text: KANQ 312055Z AUTO 02017KT 02/M04 A2998 RMK
Loading
Personal Weather Stations






























Interactive Weather Map
Tropical Storm Tracking
New forecast layout! Learn more

10-Day Weather Forecast

Advertisements
Track Severe Weather on mobile